createdAt,value
2022-12-20T00:01:51.321Z,5.17
2022-12-20T00:06:53.040Z,4.87
2022-12-20T00:11:54.713Z,4.30
2022-12-20T00:16:56.380Z,6.23
2022-12-20T00:21:58.299Z,7.43
2022-12-20T00:26:59.949Z,4.63
2022-12-20T00:32:01.740Z,4.27
2022-12-20T00:37:03.455Z,5.03
2022-12-20T00:42:05.184Z,5.33
2022-12-20T00:47:07.014Z,8.63
2022-12-20T00:52:08.822Z,5.30
2022-12-20T00:57:10.504Z,5.30
2022-12-20T01:02:12.456Z,5.53
2022-12-20T01:07:14.548Z,5.30
2022-12-20T01:12:16.211Z,4.33
2022-12-20T01:17:18.355Z,4.10
2022-12-20T01:22:19.996Z,3.40
2022-12-20T01:27:21.756Z,4.37
2022-12-20T01:32:23.371Z,7.23
2022-12-20T01:37:25.001Z,4.50
2022-12-20T01:42:26.665Z,3.10
2022-12-20T01:47:31.402Z,2.90
2022-12-20T01:52:40.093Z,4.13
2022-12-20T01:58:01.240Z,3.87
2022-12-20T02:03:06.667Z,3.60
2022-12-20T02:08:09.820Z,4.43
2022-12-20T02:13:46.042Z,6.43
2022-12-20T02:19:14.448Z,5.60
2022-12-20T02:24:27.623Z,3.43
2022-12-20T02:30:14.496Z,4.90
2022-12-20T02:35:24.163Z,3.07
2022-12-20T02:40:34.598Z,3.80
2022-12-20T02:45:37.522Z,2.77
2022-12-20T02:50:46.151Z,4.67
2022-12-20T02:56:20.602Z,3.43
2022-12-20T03:01:51.885Z,3.90
2022-12-20T03:07:07.692Z,5.47
2022-12-20T03:12:11.718Z,4.00
2022-12-20T03:17:13.476Z,4.73
2022-12-20T03:22:15.308Z,12.67
2022-12-20T03:27:17.118Z,3.40
2022-12-20T03:32:18.721Z,5.30
2022-12-20T03:37:20.449Z,3.20
2022-12-20T03:42:22.456Z,4.90
2022-12-20T03:47:24.138Z,4.73
2022-12-20T03:52:25.826Z,2.87
2022-12-20T03:57:27.815Z,3.80
2022-12-20T04:02:29.614Z,6.40
2022-12-20T04:07:31.419Z,4.10
2022-12-20T04:12:33.135Z,3.60
2022-12-20T04:17:34.903Z,7.10
2022-12-20T04:22:36.583Z,4.90
2022-12-20T04:27:38.238Z,4.50
2022-12-20T04:32:39.900Z,5.93
2022-12-20T04:37:42.113Z,8.47
2022-12-20T04:42:43.780Z,7.40
2022-12-20T04:47:45.457Z,5.33
2022-12-20T04:53:05.871Z,6.30
2022-12-20T04:58:08.073Z,4.80
2022-12-20T05:03:09.989Z,9.57
2022-12-20T05:08:11.829Z,7.03
2022-12-20T05:13:13.574Z,9.00
2022-12-20T05:18:15.194Z,5.47
2022-12-20T05:23:35.253Z,8.40
2022-12-20T05:28:37.203Z,8.47
2022-12-20T05:33:38.925Z,6.20
2022-12-20T05:38:40.530Z,6.93
2022-12-20T05:43:44.398Z,5.33
2022-12-20T05:48:46.062Z,8.60
2022-12-20T05:53:49.975Z,6.60
2022-12-20T05:58:51.727Z,5.67
2022-12-20T06:03:53.412Z,6.17
2022-12-20T06:08:58.546Z,8.83
2022-12-20T06:14:00.391Z,9.67
2022-12-20T06:19:02.621Z,8.73
2022-12-20T06:24:04.477Z,8.60
2022-12-20T06:29:14.298Z,8.23
2022-12-20T06:34:16.088Z,6.67
2022-12-20T06:39:17.849Z,6.73
2022-12-20T06:44:19.584Z,7.73
2022-12-20T06:49:22.667Z,6.90
2022-12-20T06:54:29.031Z,19.27
2022-12-20T06:59:30.687Z,12.67
2022-12-20T07:04:46.189Z,8.57
2022-12-20T07:09:50.677Z,10.47
2022-12-20T07:14:52.553Z,12.83
2022-12-20T07:19:54.220Z,7.63
2022-12-20T07:24:56.110Z,6.77
2022-12-20T07:29:57.820Z,5.73
2022-12-20T07:34:59.523Z,5.47
2022-12-20T07:40:01.200Z,6.10
2022-12-20T07:45:02.909Z,6.77
2022-12-20T07:50:05.121Z,7.43
2022-12-20T07:55:08.506Z,8.17
2022-12-20T08:00:11.178Z,6.47
2022-12-20T08:05:13.164Z,5.60
2022-12-20T08:10:16.074Z,5.10
2022-12-20T08:15:19.285Z,8.77
2022-12-20T08:20:21.230Z,4.63
2022-12-20T08:25:23.060Z,7.63
2022-12-20T08:30:24.754Z,7.77
2022-12-20T08:35:26.513Z,5.07
2022-12-20T08:40:28.114Z,3.80
2022-12-20T08:45:29.804Z,6.03
2022-12-20T08:50:31.464Z,7.90
2022-12-20T08:55:33.098Z,7.13
2022-12-20T09:00:34.762Z,6.03
2022-12-20T09:05:44.014Z,3.13
2022-12-20T09:10:45.716Z,3.60
2022-12-20T09:15:47.405Z,4.80
2022-12-20T09:20:49.450Z,6.57
2022-12-20T09:25:53.938Z,6.23
2022-12-20T09:31:00.448Z,5.07
2022-12-20T09:36:02.986Z,4.40
2022-12-20T09:41:06.452Z,3.90
2022-12-20T09:46:12.244Z,3.97
2022-12-20T09:51:27.363Z,6.63
2022-12-20T09:56:43.910Z,2.57
2022-12-20T10:01:47.544Z,4.03
2022-12-20T10:07:04.370Z,5.20
2022-12-20T10:12:32.055Z,3.07
2022-12-20T10:17:52.533Z,4.53
2022-12-20T10:23:10.061Z,3.53
2022-12-20T10:28:15.443Z,3.57
2022-12-20T10:33:22.391Z,5.23
2022-12-20T10:38:24.573Z,2.63
2022-12-20T10:43:26.506Z,2.80
2022-12-20T10:48:36.517Z,3.63
2022-12-20T10:53:55.916Z,3.43
2022-12-20T10:59:17.677Z,6.23
2022-12-20T11:04:31.299Z,3.90
2022-12-20T11:09:37.583Z,10.90
2022-12-20T11:14:41.836Z,3.37
2022-12-20T11:20:01.280Z,7.83
2022-12-20T11:25:18.761Z,4.23
2022-12-20T11:30:35.430Z,3.67
2022-12-20T11:36:16.797Z,3.30
2022-12-20T11:41:24.399Z,4.33
2022-12-20T11:46:36.446Z,3.20
2022-12-20T11:52:08.808Z,3.07
2022-12-20T11:57:16.998Z,6.67
2022-12-20T12:02:22.664Z,4.73
2022-12-20T12:07:35.109Z,3.50
2022-12-20T12:12:43.997Z,4.03
2022-12-20T12:17:52.527Z,2.87
2022-12-20T12:23:02.030Z,3.57
2022-12-20T12:28:04.881Z,4.03
2022-12-20T12:33:23.954Z,3.50
2022-12-20T12:38:28.894Z,4.70
2022-12-20T12:43:48.139Z,4.50
2022-12-20T12:49:13.048Z,4.80
2022-12-20T12:54:18.035Z,4.17
2022-12-20T12:59:33.042Z,4.10
2022-12-20T13:04:54.949Z,2.67
2022-12-20T13:09:56.631Z,3.90
2022-12-20T13:14:58.288Z,3.83
2022-12-20T13:19:59.941Z,4.87
2022-12-20T13:25:03.968Z,4.67
2022-12-20T13:30:11.854Z,4.20
2022-12-20T13:35:25.760Z,5.17
2022-12-20T13:40:54.902Z,3.20
2022-12-20T13:46:14.237Z,4.70
2022-12-20T13:51:23.911Z,4.63
2022-12-20T13:56:32.097Z,4.00
2022-12-20T14:01:37.393Z,3.20
2022-12-20T14:06:39.112Z,4.23
2022-12-20T14:11:47.623Z,4.73
2022-12-20T14:16:49.443Z,5.67
2022-12-20T14:21:52.260Z,3.70
2022-12-20T14:26:54.198Z,5.63
2022-12-20T14:31:56.042Z,5.77
2022-12-20T14:37:30.692Z,8.20
2022-12-20T14:42:40.205Z,3.17
2022-12-20T14:48:05.637Z,2.37
2022-12-20T14:53:20.025Z,4.17
2022-12-20T14:58:30.039Z,3.10
2022-12-20T15:03:32.048Z,3.60
2022-12-20T15:08:34.396Z,4.53
2022-12-20T15:13:46.932Z,5.13
2022-12-20T15:18:53.675Z,4.87
2022-12-20T15:23:56.632Z,3.60
2022-12-20T15:28:58.470Z,5.67
2022-12-20T15:34:02.185Z,6.90
2022-12-20T15:39:12.518Z,6.17
2022-12-20T15:44:17.996Z,5.80
2022-12-20T15:49:32.988Z,4.00
2022-12-20T15:54:37.121Z,5.70
2022-12-20T16:05:01.491Z,7.37
2022-12-20T16:10:04.030Z,4.97
2022-12-20T16:15:08.121Z,5.87
2022-12-20T16:20:11.269Z,5.50
2022-12-20T16:25:25.699Z,6.30
2022-12-20T16:30:27.565Z,8.90
2022-12-20T16:35:38.308Z,7.90
2022-12-20T16:40:40.189Z,7.40
2022-12-20T16:45:41.939Z,5.90
2022-12-20T16:50:43.630Z,7.03
2022-12-20T16:55:45.465Z,8.77
2022-12-20T17:00:47.241Z,5.90
2022-12-20T17:05:48.920Z,6.47
2022-12-20T17:10:51.764Z,5.13
2022-12-20T17:15:57.785Z,8.90
2022-12-20T17:21:16.363Z,5.80
2022-12-20T17:26:28.496Z,12.40
2022-12-20T17:31:39.373Z,8.27
2022-12-20T17:36:41.330Z,8.17
2022-12-20T17:41:48.650Z,11.93
2022-12-20T17:47:21.094Z,6.80
2022-12-20T17:58:51.664Z,5.03
2022-12-20T18:04:06.271Z,5.50
2022-12-20T18:09:18.149Z,6.30
2022-12-20T18:14:20.029Z,6.47
2022-12-20T18:19:31.829Z,7.87
2022-12-20T18:26:22.694Z,7.27
2022-12-20T18:32:00.207Z,5.93
2022-12-20T18:37:02.400Z,6.90
2022-12-20T18:42:11.792Z,6.77
2022-12-20T18:47:13.512Z,9.20
2022-12-20T18:52:15.657Z,7.13
2022-12-20T18:57:17.396Z,6.70
2022-12-20T19:02:19.384Z,6.33
2022-12-20T19:07:21.365Z,7.43
2022-12-20T19:12:23.042Z,8.50
2022-12-20T19:22:43.113Z,7.53
2022-12-20T19:27:47.507Z,6.87
2022-12-20T19:32:49.466Z,8.97
2022-12-20T19:37:53.509Z,9.23
2022-12-20T19:42:55.634Z,6.93
2022-12-20T19:47:57.356Z,7.53
2022-12-20T19:52:59.602Z,7.20
2022-12-20T19:58:01.393Z,7.00
2022-12-20T20:03:04.317Z,8.47
2022-12-20T20:08:08.554Z,8.73
2022-12-20T20:13:11.903Z,6.87
2022-12-20T20:18:13.788Z,7.87
2022-12-20T20:23:18.359Z,10.13
2022-12-20T20:28:24.098Z,8.80
2022-12-20T20:33:30.194Z,10.30
2022-12-20T20:38:33.118Z,11.77
2022-12-20T20:43:36.940Z,12.73
2022-12-20T20:48:40.982Z,8.80
2022-12-20T20:53:45.483Z,9.20
2022-12-20T20:58:48.104Z,9.87
2022-12-20T21:03:53.045Z,9.37
2022-12-20T21:08:57.541Z,8.60
2022-12-20T21:13:59.581Z,9.33
2022-12-20T21:19:03.975Z,8.40
2022-12-20T21:24:06.387Z,11.00
2022-12-20T21:29:08.425Z,10.70
2022-12-20T21:34:10.191Z,11.53
2022-12-20T21:39:13.244Z,9.53
2022-12-20T21:44:15.235Z,10.30
2022-12-20T21:49:19.455Z,9.57
2022-12-20T21:54:21.592Z,14.90
2022-12-20T21:59:23.772Z,12.63
2022-12-20T22:04:32.638Z,11.13
2022-12-20T22:09:34.402Z,10.33
2022-12-20T22:14:36.453Z,10.70
2022-12-20T22:19:46.955Z,10.40
2022-12-20T22:24:48.688Z,11.97
2022-12-20T22:29:52.844Z,11.87
2022-12-20T22:35:07.591Z,11.33
2022-12-20T22:40:09.866Z,20.20
2022-12-20T22:45:11.864Z,14.43
2022-12-20T22:50:13.643Z,14.50
2022-12-20T22:55:15.595Z,11.93
2022-12-20T23:00:17.351Z,15.33
2022-12-20T23:05:19.052Z,17.07
2022-12-20T23:10:39.520Z,13.60
2022-12-20T23:15:41.332Z,14.00
2022-12-20T23:27:09.880Z,15.83
2022-12-20T23:32:14.225Z,13.43
2022-12-20T23:37:16.166Z,14.70
2022-12-20T23:42:17.976Z,13.30
2022-12-20T23:47:19.725Z,14.50
2022-12-20T23:52:21.420Z,14.13
2022-12-20T23:57:23.057Z,12.50
